createdAt,value
2018-08-06T00:00:33.420Z,99.90
2018-08-06T00:03:02.294Z,99.90
2018-08-06T00:05:31.094Z,99.90
2018-08-06T00:07:59.854Z,99.90
2018-08-06T00:10:28.961Z,99.90
2018-08-06T00:12:57.689Z,99.90
2018-08-06T00:15:26.481Z,99.90
2018-08-06T00:17:55.245Z,99.90
2018-08-06T00:20:24.035Z,99.90
2018-08-06T00:22:52.896Z,99.90
2018-08-06T00:25:21.626Z,99.90
2018-08-06T00:27:50.387Z,99.90
2018-08-06T00:30:20.180Z,99.90
2018-08-06T00:32:49.699Z,99.90
2018-08-06T00:35:18.608Z,99.90
2018-08-06T00:37:47.485Z,99.90
2018-08-06T00:40:18.842Z,99.90
2018-08-06T00:42:48.324Z,99.90
2018-08-06T00:45:18.719Z,99.90
2018-08-06T00:47:48.051Z,99.90
2018-08-06T00:50:16.900Z,99.90
2018-08-06T00:52:45.799Z,99.90
2018-08-06T00:55:17.139Z,99.90
2018-08-06T00:57:45.861Z,99.90
2018-08-06T01:00:20.302Z,99.90
2018-08-06T01:02:49.137Z,99.90
2018-08-06T01:05:18.146Z,99.90
2018-08-06T01:07:47.027Z,99.90
2018-08-06T01:10:17.002Z,99.90
2018-08-06T01:12:45.837Z,99.90
2018-08-06T01:15:16.703Z,99.90
2018-08-06T01:17:45.398Z,99.90
2018-08-06T01:20:14.431Z,99.90
2018-08-06T01:22:43.982Z,99.90
2018-08-06T01:25:13.412Z,99.90
2018-08-06T01:27:42.111Z,99.90
2018-08-06T01:30:13.097Z,99.90
2018-08-06T01:32:41.783Z,99.90
2018-08-06T01:35:11.196Z,99.90
2018-08-06T01:37:40.190Z,99.90
2018-08-06T01:40:11.217Z,99.90
2018-08-06T01:42:40.240Z,99.90
2018-08-06T01:45:09.313Z,99.90
2018-08-06T01:47:38.554Z,99.90
2018-08-06T01:50:08.033Z,99.90
2018-08-06T01:52:36.925Z,99.90
2018-08-06T01:55:05.866Z,99.90
2018-08-06T01:57:34.679Z,99.90
2018-08-06T02:00:04.449Z,99.90
2018-08-06T02:02:33.183Z,99.90
2018-08-06T02:05:01.877Z,99.90
2018-08-06T02:07:30.546Z,99.90
2018-08-06T02:09:59.249Z,99.90
2018-08-06T02:12:28.009Z,99.90
2018-08-06T02:14:57.046Z,99.90
2018-08-06T02:17:25.818Z,99.90
2018-08-06T02:19:54.600Z,99.90
2018-08-06T02:22:23.229Z,99.90
2018-08-06T02:24:51.929Z,99.90
2018-08-06T02:27:20.661Z,99.90
2018-08-06T02:29:49.339Z,99.90
2018-08-06T02:32:18.098Z,99.90
2018-08-06T02:34:46.903Z,99.90
2018-08-06T02:37:15.606Z,99.90
2018-08-06T02:39:44.302Z,99.90
2018-08-06T02:42:12.930Z,99.90
2018-08-06T02:44:41.649Z,99.90
2018-08-06T02:47:10.334Z,99.90
2018-08-06T02:49:39.013Z,99.90
2018-08-06T02:52:07.820Z,99.90
2018-08-06T02:54:36.409Z,99.90
2018-08-06T02:57:05.273Z,99.90
2018-08-06T02:59:33.947Z,99.90
2018-08-06T03:02:02.679Z,99.90
2018-08-06T03:04:31.304Z,99.90
2018-08-06T03:07:00.025Z,99.90
2018-08-06T03:09:28.693Z,99.90
2018-08-06T03:11:57.353Z,99.90
2018-08-06T03:14:26.049Z,99.90
2018-08-06T03:16:54.656Z,99.90
2018-08-06T03:19:23.370Z,99.90
2018-08-06T03:21:51.962Z,99.90
2018-08-06T03:24:20.776Z,99.90
2018-08-06T03:26:49.431Z,99.90
2018-08-06T03:29:18.291Z,99.90
2018-08-06T03:31:46.983Z,99.90
2018-08-06T03:34:15.620Z,99.90
2018-08-06T03:36:44.277Z,99.90
2018-08-06T03:39:12.956Z,99.90
2018-08-06T03:41:41.651Z,99.90
2018-08-06T03:44:10.386Z,99.90
2018-08-06T03:46:39.053Z,99.90
2018-08-06T03:49:07.650Z,99.90
2018-08-06T03:51:36.399Z,99.90
2018-08-06T03:54:05.198Z,99.90
2018-08-06T03:56:33.949Z,99.90
2018-08-06T03:59:02.599Z,99.90
2018-08-06T04:01:31.290Z,99.90
2018-08-06T04:03:59.888Z,99.90
2018-08-06T04:06:28.544Z,99.90
2018-08-06T04:08:57.273Z,99.90
2018-08-06T04:11:25.915Z,99.90
2018-08-06T04:13:54.547Z,99.90
2018-08-06T04:16:27.649Z,99.90
2018-08-06T04:18:56.360Z,99.90
2018-08-06T04:21:25.070Z,99.90
2018-08-06T04:23:53.808Z,99.90
2018-08-06T04:26:22.452Z,99.90
2018-08-06T05:51:50.765Z,99.90
2018-08-06T05:54:19.649Z,92.20
2018-08-06T05:56:48.513Z,92.40
2018-08-06T05:59:17.453Z,93.50
2018-08-06T06:01:46.565Z,94.60
2018-08-06T06:04:15.362Z,95.20
2018-08-06T06:06:44.693Z,95.10
2018-08-06T06:09:13.384Z,95.30
2018-08-06T06:11:42.023Z,95.40
2018-08-06T06:14:10.919Z,95.90
2018-08-06T06:16:39.639Z,96.00
2018-08-06T06:19:08.400Z,96.00
2018-08-06T06:21:37.119Z,95.00
2018-08-06T06:24:05.850Z,93.80
2018-08-06T06:26:34.529Z,92.40
2018-08-06T06:29:03.309Z,91.00
2018-08-06T06:31:31.959Z,90.40
2018-08-06T06:34:00.600Z,90.00
2018-08-06T06:36:29.247Z,88.00
2018-08-06T06:38:58.003Z,87.10
2018-08-06T06:41:27.462Z,85.00
2018-08-06T06:43:56.205Z,85.10
2018-08-06T06:46:25.489Z,85.70
2018-08-06T06:48:54.280Z,88.20
2018-08-06T06:51:23.096Z,90.50
2018-08-06T06:53:52.626Z,92.10
2018-08-06T06:56:21.467Z,93.00
2018-08-06T06:58:50.730Z,94.10
2018-08-06T07:01:19.479Z,95.00
2018-08-06T07:03:48.294Z,95.90
2018-08-06T07:06:17.002Z,95.90
2018-08-06T07:08:45.697Z,96.40
2018-08-06T07:11:14.968Z,96.50
2018-08-06T07:13:43.796Z,96.90
2018-08-06T07:16:12.488Z,96.70
2018-08-06T07:18:41.317Z,97.00
2018-08-06T07:21:09.995Z,97.10
2018-08-06T07:23:38.745Z,96.80
2018-08-06T07:26:07.669Z,96.50
2018-08-06T07:28:36.293Z,96.40
2018-08-06T07:31:05.119Z,96.30
2018-08-06T07:33:33.882Z,96.30
2018-08-06T07:36:02.678Z,96.50
2018-08-06T07:38:31.351Z,96.50
2018-08-06T07:41:00.023Z,96.60
2018-08-06T07:43:28.695Z,96.10
2018-08-06T07:45:58.608Z,96.40
2018-08-06T07:48:27.401Z,96.10
2018-08-06T07:50:56.213Z,95.90
2018-08-06T07:53:24.967Z,95.80
2018-08-06T07:55:53.895Z,95.80
2018-08-06T07:58:22.723Z,95.40
2018-08-06T08:00:51.800Z,95.30
2018-08-06T08:03:20.522Z,95.30
2018-08-06T08:05:49.310Z,95.10
2018-08-06T08:08:18.160Z,95.00
2018-08-06T08:10:46.941Z,94.40
2018-08-06T08:13:15.808Z,94.30
2018-08-06T08:15:44.562Z,93.80
2018-08-06T08:18:13.248Z,93.50
2018-08-06T08:20:42.033Z,93.70
2018-08-06T08:23:10.786Z,93.30
2018-08-06T08:25:39.518Z,93.20
2018-08-06T08:28:08.317Z,92.90
2018-08-06T08:30:37.045Z,92.70
2018-08-06T08:33:06.518Z,93.00
2018-08-06T08:35:35.975Z,92.30
2018-08-06T08:38:04.759Z,92.30
2018-08-06T08:40:33.530Z,91.60
2018-08-06T08:43:02.312Z,91.70
2018-08-06T08:45:31.034Z,91.90
2018-08-06T08:48:00.104Z,91.80
2018-08-06T08:50:28.834Z,91.00
2018-08-06T08:52:57.643Z,90.40
2018-08-06T08:55:26.444Z,90.40
2018-08-06T08:57:55.224Z,90.00
2018-08-06T09:00:24.141Z,90.10
2018-08-06T09:02:53.374Z,89.80
2018-08-06T09:05:22.317Z,89.60
2018-08-06T09:07:52.294Z,88.00
2018-08-06T09:10:21.434Z,88.10
2018-08-06T09:12:50.236Z,88.40
2018-08-06T09:15:20.563Z,88.00
2018-08-06T09:17:49.244Z,87.30
2018-08-06T09:20:18.014Z,86.70
2018-08-06T09:22:47.184Z,85.00
2018-08-06T09:25:16.056Z,84.70
2018-08-06T09:27:46.010Z,85.30
2018-08-06T09:30:17.948Z,84.90
2018-08-06T09:32:48.827Z,84.70
2018-08-06T09:35:18.985Z,82.00
2018-08-06T09:37:47.603Z,81.40
2018-08-06T09:40:18.451Z,81.60
2018-08-06T09:42:47.718Z,81.50
2018-08-06T09:45:17.531Z,80.40
2018-08-06T09:47:47.459Z,79.30
2018-08-06T09:50:16.938Z,79.00
2018-08-06T09:52:46.588Z,78.60
2018-08-06T09:55:17.581Z,77.60
2018-08-06T09:57:46.629Z,75.60
2018-08-06T10:00:21.882Z,76.60
2018-08-06T10:02:51.254Z,77.10
2018-08-06T10:05:21.720Z,76.60
2018-08-06T10:07:50.487Z,75.60
2018-08-06T10:10:19.254Z,75.50
2018-08-06T10:12:48.062Z,75.90
2018-08-06T10:15:17.026Z,76.00
2018-08-06T10:17:46.713Z,76.70
2018-08-06T10:20:17.658Z,76.10
2018-08-06T10:22:46.349Z,75.30
2018-08-06T10:25:15.484Z,75.30
2018-08-06T10:27:44.931Z,75.30
2018-08-06T10:30:15.870Z,75.10
2018-08-06T10:32:44.960Z,74.90
2018-08-06T10:35:14.917Z,73.70
2018-08-06T10:37:43.805Z,73.20
2018-08-06T10:40:15.452Z,72.80
2018-08-06T10:42:44.970Z,72.90
2018-08-06T10:45:15.732Z,73.20
2018-08-06T10:47:45.108Z,74.10
2018-08-06T10:50:13.900Z,72.60
2018-08-06T10:52:42.601Z,72.70
2018-08-06T10:55:12.012Z,72.00
2018-08-06T10:57:41.925Z,72.40
2018-08-06T11:00:12.756Z,72.00
2018-08-06T11:02:41.430Z,71.80
2018-08-06T11:05:11.238Z,72.40
2018-08-06T11:07:40.112Z,72.20
2018-08-06T11:10:11.174Z,72.40
2018-08-06T11:12:40.330Z,72.30
2018-08-06T11:15:11.533Z,72.10
2018-08-06T11:17:40.544Z,71.40
2018-08-06T11:20:11.490Z,71.20
2018-08-06T11:22:40.544Z,70.00
2018-08-06T11:25:11.118Z,70.30
2018-08-06T11:27:39.876Z,70.70
2018-08-06T11:30:11.251Z,71.20
2018-08-06T11:32:39.948Z,70.50
2018-08-06T11:35:09.448Z,70.70
2018-08-06T11:37:38.253Z,71.00
2018-08-06T11:40:08.097Z,71.60
2018-08-06T11:42:37.272Z,71.60
2018-08-06T11:45:06.481Z,70.60
2018-08-06T11:47:35.139Z,69.90
2018-08-06T11:50:04.465Z,69.70
2018-08-06T11:52:33.565Z,69.80
2018-08-06T11:55:02.377Z,68.60
2018-08-06T11:57:31.160Z,68.40
2018-08-06T12:00:02.149Z,68.00
2018-08-06T12:02:30.931Z,67.60
2018-08-06T12:04:59.509Z,68.20
2018-08-06T12:07:28.293Z,68.60
2018-08-06T12:09:57.408Z,68.30
2018-08-06T12:12:26.137Z,68.50
2018-08-06T12:14:54.821Z,67.70
2018-08-06T12:17:23.549Z,66.80
2018-08-06T12:19:52.193Z,65.30
2018-08-06T12:22:20.943Z,65.40
2018-08-06T12:24:50.589Z,66.60
2018-08-06T12:27:19.542Z,66.20
2018-08-06T12:29:48.362Z,66.00
2018-08-06T12:32:17.069Z,65.90
2018-08-06T12:34:45.786Z,66.00
2018-08-06T12:37:14.472Z,66.00
2018-08-06T12:39:43.272Z,65.40
2018-08-06T12:42:12.107Z,65.20
2018-08-06T12:44:40.730Z,65.40
2018-08-06T12:47:10.368Z,65.30
2018-08-06T12:49:39.046Z,65.00
2018-08-06T12:52:07.773Z,65.10
2018-08-06T12:54:37.170Z,65.20
2018-08-06T12:57:05.999Z,65.00
2018-08-06T12:59:34.731Z,62.90
2018-08-06T13:02:03.513Z,62.90
2018-08-06T13:04:32.223Z,62.30
2018-08-06T13:07:00.946Z,60.90
2018-08-06T13:09:29.724Z,60.00
2018-08-06T13:11:58.494Z,61.10
2018-08-06T13:14:27.786Z,60.90
2018-08-06T13:16:57.026Z,60.30
2018-08-06T13:19:25.662Z,59.90
2018-08-06T13:21:54.601Z,59.40
2018-08-06T13:24:23.529Z,59.10
2018-08-06T13:26:52.215Z,59.20
2018-08-06T13:29:20.814Z,60.30
2018-08-06T13:31:49.603Z,59.50
2018-08-06T13:34:18.279Z,59.90
2018-08-06T13:36:46.957Z,60.00
2018-08-06T13:39:15.763Z,59.90
2018-08-06T13:41:44.471Z,59.80
2018-08-06T13:44:13.134Z,57.80
2018-08-06T13:46:42.009Z,57.70
2018-08-06T13:49:11.209Z,56.90
2018-08-06T13:51:40.001Z,56.80
2018-08-06T13:54:08.765Z,57.20
2018-08-06T13:56:37.594Z,57.50
2018-08-06T13:59:06.315Z,57.70
2018-08-06T14:01:35.476Z,57.50
2018-08-06T14:04:04.410Z,56.80
2018-08-06T14:06:33.122Z,57.20
2018-08-06T14:09:01.742Z,57.30
2018-08-06T14:11:30.350Z,57.30
2018-08-06T14:13:59.318Z,57.50
2018-08-06T14:16:28.238Z,57.30
2018-08-06T14:18:57.636Z,57.70
2018-08-06T14:21:27.015Z,57.50
2018-08-06T14:23:57.122Z,57.50
2018-08-06T14:26:25.705Z,56.90
2018-08-06T14:28:54.311Z,56.50
2018-08-06T14:31:22.905Z,56.60
2018-08-06T14:33:51.589Z,56.20
2018-08-06T14:36:20.919Z,56.00
2018-08-06T14:38:49.677Z,56.30
2018-08-06T14:41:19.492Z,56.10
2018-08-06T14:43:48.172Z,56.40
2018-08-06T14:46:16.811Z,56.20
2018-08-06T14:48:45.453Z,56.20
2018-08-06T14:51:14.005Z,56.40
2018-08-06T14:53:42.746Z,56.30
2018-08-06T14:56:12.169Z,55.40
2018-08-06T14:58:40.894Z,55.90
2018-08-06T15:01:09.858Z,55.70
2018-08-06T15:03:38.793Z,55.70
2018-08-06T15:06:07.441Z,56.10
2018-08-06T15:08:36.151Z,55.70
2018-08-06T15:11:04.916Z,55.70
2018-08-06T15:13:33.541Z,55.70
2018-08-06T15:16:02.236Z,55.60
2018-08-06T15:18:31.015Z,55.80
2018-08-06T15:20:59.641Z,56.20
2018-08-06T15:23:28.827Z,55.30
2018-08-06T15:25:57.496Z,55.80
2018-08-06T15:28:26.209Z,55.90
2018-08-06T15:30:54.978Z,56.10
2018-08-06T15:33:24.164Z,56.00
2018-08-06T15:35:52.840Z,56.30
2018-08-06T15:38:21.690Z,55.60
2018-08-06T15:40:50.395Z,56.00
2018-08-06T15:43:19.050Z,55.80
2018-08-06T15:45:47.789Z,55.30
2018-08-06T15:48:16.396Z,55.90
2018-08-06T15:50:45.816Z,55.40
2018-08-06T15:53:14.558Z,55.60
2018-08-06T15:55:44.110Z,54.90
2018-08-06T15:58:12.683Z,54.80
2018-08-06T16:00:42.299Z,55.00
2018-08-06T16:03:10.895Z,55.20
2018-08-06T16:05:39.569Z,55.20
2018-08-06T16:08:08.619Z,54.90
2018-08-06T16:10:37.468Z,55.10
2018-08-06T16:13:06.300Z,54.90
2018-08-06T16:15:34.921Z,55.20
2018-08-06T16:18:03.778Z,55.10
2018-08-06T16:20:32.612Z,54.90
2018-08-06T16:23:01.304Z,54.80
2018-08-06T16:25:32.974Z,54.30
2018-08-06T16:28:02.569Z,54.90
2018-08-06T16:30:33.414Z,55.20
2018-08-06T16:33:02.256Z,54.40
2018-08-06T16:35:31.035Z,54.10
2018-08-06T16:37:59.762Z,54.30
2018-08-06T16:40:29.244Z,54.40
2018-08-06T16:42:58.284Z,54.00
2018-08-06T16:45:27.407Z,54.40
2018-08-06T16:47:59.482Z,53.80
2018-08-06T16:50:28.277Z,54.30
2018-08-06T16:52:57.246Z,54.30
2018-08-06T16:55:27.410Z,53.60
2018-08-06T16:57:56.226Z,53.50
2018-08-06T17:00:31.927Z,53.90
2018-08-06T17:03:02.034Z,54.00
2018-08-06T17:05:30.889Z,54.10
2018-08-06T17:07:59.724Z,54.10
2018-08-06T17:10:51.814Z,54.10
2018-08-06T17:13:22.142Z,54.00
2018-08-06T17:15:51.542Z,54.40
2018-08-06T17:18:20.202Z,54.40
2018-08-06T17:21:03.900Z,54.90
2018-08-06T17:23:32.688Z,54.90
2018-08-06T17:26:01.576Z,54.30
2018-08-06T17:28:30.462Z,52.90
2018-08-06T17:30:59.480Z,52.00
2018-08-06T17:33:28.300Z,51.20
2018-08-06T17:35:57.080Z,50.20
2018-08-06T17:38:25.764Z,50.30
2018-08-06T17:40:54.629Z,49.90
2018-08-06T17:43:23.337Z,50.10
2018-08-06T17:45:51.970Z,50.10
2018-08-06T17:48:21.521Z,49.60
2018-08-06T17:50:50.223Z,49.30
2018-08-06T17:53:18.844Z,49.50
2018-08-06T17:55:47.598Z,49.30
2018-08-06T17:58:16.281Z,49.80
2018-08-06T18:00:45.340Z,50.20
2018-08-06T18:03:13.989Z,51.00
2018-08-06T18:05:42.773Z,51.50
2018-08-06T18:08:11.541Z,51.90
2018-08-06T18:10:40.378Z,52.30
2018-08-06T18:13:09.483Z,53.00
2018-08-06T18:15:38.128Z,53.40
2018-08-06T18:18:06.935Z,54.00
2018-08-06T18:20:35.761Z,54.70
2018-08-06T18:23:05.714Z,55.10
2018-08-06T18:25:34.514Z,55.30
2018-08-06T18:28:03.281Z,55.60
2018-08-06T18:30:31.886Z,55.90
2018-08-06T18:33:00.978Z,56.30
2018-08-06T18:35:29.771Z,56.50
2018-08-06T18:37:58.533Z,56.90
2018-08-06T18:40:27.260Z,56.90
2018-08-06T18:42:55.976Z,57.10
2018-08-06T18:45:24.613Z,57.60
2018-08-06T18:47:53.510Z,57.90
2018-08-06T18:50:22.239Z,57.80
2018-08-06T18:52:51.405Z,58.00
2018-08-06T18:55:20.208Z,58.60
2018-08-06T18:57:49.246Z,59.20
2018-08-06T19:00:19.949Z,59.00
2018-08-06T19:02:48.801Z,59.40
2018-08-06T19:05:17.690Z,59.70
2018-08-06T19:07:46.397Z,60.00
2018-08-06T19:10:15.113Z,60.70
2018-08-06T20:34:47.307Z,61.10
2018-08-06T20:37:15.984Z,74.80
2018-08-06T20:39:44.626Z,73.10
2018-08-06T20:42:13.376Z,72.40
2018-08-06T20:44:42.063Z,72.40
2018-08-06T20:47:10.751Z,72.30
2018-08-06T20:49:39.338Z,72.60
2018-08-06T20:52:08.826Z,73.40
2018-08-06T20:54:37.895Z,74.30
2018-08-06T20:57:06.629Z,73.20
2018-08-06T20:59:35.274Z,74.30
2018-08-06T21:02:04.014Z,73.80
2018-08-06T21:04:32.936Z,73.50
2018-08-06T21:07:01.681Z,73.90
2018-08-06T21:09:30.389Z,74.30
2018-08-06T21:11:59.065Z,75.00
2018-08-06T21:14:27.778Z,75.30
2018-08-06T21:16:56.469Z,76.50
2018-08-06T21:19:25.182Z,76.30
2018-08-06T21:21:53.910Z,76.40
2018-08-06T21:24:22.678Z,76.40
2018-08-06T21:26:51.967Z,76.60
2018-08-06T21:29:20.696Z,77.70
2018-08-06T21:31:49.471Z,78.10
2018-08-06T21:34:33.907Z,78.10
2018-08-06T21:37:05.029Z,77.70
2018-08-06T21:39:33.728Z,77.30
2018-08-06T21:42:02.478Z,77.10
2018-08-06T21:44:31.166Z,78.90
2018-08-06T21:46:59.803Z,80.10
2018-08-06T21:49:28.499Z,80.00
2018-08-06T21:51:57.329Z,80.10
2018-08-06T21:54:26.147Z,80.10
2018-08-06T21:57:01.275Z,80.30
2018-08-06T21:59:29.939Z,80.30
2018-08-06T22:01:58.680Z,81.30
2018-08-06T22:04:27.216Z,82.00
2018-08-06T22:06:56.125Z,81.40
2018-08-06T22:09:25.030Z,82.10
2018-08-06T22:11:53.828Z,82.50
2018-08-06T22:14:22.580Z,82.40
2018-08-06T22:16:51.407Z,82.70
2018-08-06T22:19:20.319Z,82.90
2018-08-06T22:21:48.967Z,83.60
2018-08-06T22:24:17.679Z,83.90
2018-08-06T22:26:46.349Z,84.90
2018-08-06T22:29:15.125Z,85.00
2018-08-06T22:31:44.106Z,85.10
2018-08-06T22:34:12.709Z,85.60
2018-08-06T22:36:41.353Z,85.70
2018-08-06T22:39:11.039Z,86.60
2018-08-06T22:41:39.711Z,87.00
2018-08-06T22:44:09.142Z,87.20
2018-08-06T22:46:38.053Z,87.20
2018-08-06T22:49:06.766Z,87.20
2018-08-06T22:51:35.545Z,87.50
2018-08-06T22:54:04.401Z,87.70
2018-08-06T22:56:33.671Z,87.50
2018-08-06T22:59:02.314Z,88.00
2018-08-06T23:01:31.066Z,88.20
2018-08-06T23:04:00.401Z,88.60
2018-08-06T23:06:30.015Z,88.70
2018-08-06T23:08:59.253Z,89.40
2018-08-06T23:11:28.114Z,89.20
2018-08-06T23:13:58.033Z,89.30
2018-08-06T23:16:27.978Z,89.60
2018-08-06T23:18:56.934Z,90.10
2018-08-06T23:21:26.790Z,90.30
2018-08-06T23:23:55.696Z,90.30
2018-08-06T23:26:24.425Z,90.60
2018-08-06T23:28:53.200Z,90.50
2018-08-06T23:31:22.033Z,91.00
2018-08-06T23:33:51.162Z,91.00
2018-08-06T23:36:20.357Z,90.90
2018-08-06T23:38:49.773Z,90.90
2018-08-06T23:41:18.620Z,91.20
2018-08-06T23:43:47.461Z,91.40
2018-08-06T23:46:16.259Z,91.20
2018-08-06T23:48:45.074Z,91.20
2018-08-06T23:51:13.764Z,91.00
2018-08-06T23:53:42.560Z,91.10
2018-08-06T23:56:11.285Z,91.40
2018-08-06T23:58:40.054Z,91.50
